Time;durP1;ratioP1;P1;durP2;ratioP2;P2;SDS_P1;SDS_P2;PMS_P1;PMS_P2;Temp;Humidity;BMP_temperature;BMP_pressure;BME280_temperature;BME280_humidity;BME280_pressure;Samples;Min_cycle;Max_cycle;Signal;HPM_P1;HPM_P2
2022/09/29 08:01:52;;;;;;;16.88;13.27;;;;;;;8.73;89.37;99964.75;5254408;27;1904682;-77
2022/09/29 08:04:24;;;;;;;17.17;13.27;;;;;;;8.76;88.99;99964.16;5290683;28;20029;-78
2022/09/29 08:06:55;;;;;;;14.50;13.00;;;;;;;8.76;88.58;99962.19;5280530;28;20033;-77
2022/09/29 08:09:26;;;;;;;16.05;14.25;;;;;;;8.82;89.10;99972.06;5279712;28;20025;-76
2022/09/29 08:11:57;;;;;;;15.13;12.95;;;;;;;8.81;88.60;99969.59;5280607;28;20031;-77
2022/09/29 08:14:29;;;;;;;14.98;13.45;;;;;;;8.81;87.65;99975.94;5282240;28;20071;-78
2022/09/29 08:17:00;;;;;;;13.68;12.32;;;;;;;8.83;87.43;99972.91;5287045;28;20029;-79
2022/09/29 08:19:31;;;;;;;13.00;11.50;;;;;;;9.09;90.51;99987.97;5282644;28;20549;-81
2022/09/29 08:22:03;;;;;;;17.83;11.77;;;;;;;9.15;92.66;99985.94;5290122;28;20032;-80
2022/09/29 08:24:35;;;;;;;13.75;11.52;;;;;;;9.09;91.61;99987.97;5300517;28;20051;-82
2022/09/29 08:27:07;;;;;;;12.23;10.95;;;;;;;9.33;92.77;99992.56;5284433;28;20375;-80
2022/09/29 08:29:38;;;;;;;10.85;9.75;;;;;;;9.53;92.84;99989.44;5279836;28;20032;-77
2022/09/29 08:32:10;;;;;;;13.40;11.48;;;;;;;9.46;92.15;99991.81;5284611;28;20491;-76
2022/09/29 08:34:41;;;;;;;14.55;12.05;;;;;;;9.32;89.60;100004.75;5300775;28;20067;-78
2022/09/29 08:37:12;;;;;;;11.75;10.43;;;;;;;9.75;91.89;100001.81;5299242;28;20042;-77
2022/09/29 08:39:44;;;;;;;11.07;9.90;;;;;;;9.88;92.14;100003.78;5280360;28;20028;-77
2022/09/29 08:42:31;;;;;;;12.30;9.85;;;;;;;9.79;90.31;100002.81;5280801;28;20099;-82
2022/09/29 08:45:07;;;;;;;12.52;11.23;;;;;;;9.62;87.98;100005.38;5281849;28;20403;-80
2022/09/29 08:47:42;;;;;;;14.82;10.60;;;;;;;9.54;87.65;100004.94;5291148;28;20040;-78
2022/09/29 08:50:30;;;;;;;12.65;10.75;;;;;;;9.97;90.01;100013.03;5295436;28;20108;-78
2022/09/29 08:53:08;;;;;;;12.20;10.35;;;;;;;9.97;88.93;100010.28;5307735;28;20052;-81
2022/09/29 08:55:47;;;;;;;13.88;10.05;;;;;;;10.19;90.03;100017.84;5293263;28;20017;-81
2022/09/29 08:58:19;;;;;;;14.18;12.00;;;;;;;9.98;88.84;100014.66;5293798;28;20515;-84
2022/09/29 09:01:17;;;;;;;12.77;10.70;;;;;;;10.16;88.69;100014.91;5302035;28;20063;-73
2022/09/29 09:04:18;;;;;;;11.95;10.65;;;;;;;10.32;89.72;100019.03;5300648;28;20024;-72
2022/09/29 09:06:49;;;;;;;12.40;11.10;;;;;;;10.30;87.55;100012.16;5287588;28;20115;-68
2022/09/29 09:09:40;;;;;;;15.30;11.93;;;;;;;10.30;87.08;100020.47;5297363;28;20107;-79
2022/09/29 09:12:38;;;;;;;12.95;10.32;;;;;;;10.61;87.99;100020.66;5273014;28;20041;-73
2022/09/29 09:15:37;;;;;;;22.35;18.75;;;;;;;10.67;88.33;100027.75;5264051;28;20029;-78
2022/09/29 09:18:30;;;;;;;12.73;11.38;;;;;;;10.41;86.42;100028.28;5271287;28;20034;-78
2022/09/29 09:21:16;;;;;;;12.68;10.43;;;;;;;10.63;87.96;100023.94;5270877;28;20439;-81
2022/09/29 09:23:55;;;;;;;12.63;11.32;;;;;;;10.64;87.44;100028.38;5265311;28;20029;-76
2022/09/29 09:26:37;;;;;;;13.73;11.20;;;;;;;10.67;87.92;100036.06;5278330;28;20025;-72
2022/09/29 09:29:17;;;;;;;13.30;9.75;;;;;;;10.98;87.71;100027.06;5277515;28;20025;-77
2022/09/29 09:32:10;;;;;;;11.52;10.35;;;;;;;10.84;86.96;100030.69;5264360;28;20025;-70
2022/09/29 09:34:52;;;;;;;12.68;10.57;;;;;;;10.96;85.41;100027.38;5263719;28;20029;-76
2022/09/29 09:37:44;;;;;;;9.88;8.50;;;;;;;11.22;86.43;100035.09;5264334;28;20040;-71
2022/09/29 09:40:42;;;;;;;11.30;8.52;;;;;;;11.30;85.90;100029.63;5264887;28;20021;-77
2022/09/29 09:43:38;;;;;;;9.02;8.10;;;;;;;11.26;85.05;100025.03;5266919;28;20062;-76
2022/09/29 09:46:31;;;;;;;8.95;7.63;;;;;;;11.44;84.07;100026.78;5276710;28;20060;-77
2022/09/29 09:49:40;;;;;;;9.35;7.75;;;;;;;11.64;83.59;100033.78;5271847;28;20111;-76
2022/09/29 09:52:19;;;;;;;9.48;7.22;;;;;;;11.84;84.16;100032.47;5289090;28;20032;-76
2022/09/29 09:55:03;;;;;;;7.70;6.88;;;;;;;11.64;81.06;100033.78;5289238;28;20063;-77
2022/09/29 09:57:56;;;;;;;8.00;7.18;;;;;;;11.71;82.20;100036.94;5278346;28;20487;-76
2022/09/29 10:00:38;;;;;;;8.60;7.57;;;;;;;11.82;82.67;100036.69;5270909;28;20048;-77
2022/09/29 10:03:15;;;;;;;12.93;7.50;;;;;;;11.91;81.77;100040.34;5276956;28;20491;-77
2022/09/29 10:05:48;;;;;;;8.63;7.47;;;;;;;11.83;80.12;100041.09;5266816;28;20120;-80
2022/09/29 10:08:25;;;;;;;7.60;6.90;;;;;;;12.17;81.14;100046.06;5269276;28;20025;-80
2022/09/29 10:10:58;;;;;;;7.25;6.43;;;;;;;11.96;80.25;100043.00;5269695;28;20033;-79
2022/09/29 10:13:31;;;;;;;5.78;5.20;;;;;;;11.95;77.29;100041.38;5274190;28;20057;-80
2022/09/29 10:16:18;;;;;;;5.20;4.18;;;;;;;12.24;78.96;100042.81;5287585;28;20074;-76
2022/09/29 10:18:51;;;;;;;7.22;5.50;;;;;;;12.09;78.05;100042.09;5269793;28;20029;-74
2022/09/29 10:21:39;;;;;;;5.75;5.15;;;;;;;12.10;76.88;100038.19;5263901;28;20120;-74
2022/09/29 10:24:26;;;;;;;5.47;4.70;;;;;;;12.14;76.87;100041.97;5261928;28;20104;-78
2022/09/29 10:27:01;;;;;;;6.53;5.80;;;;;;;12.20;76.38;100048.19;5265179;28;20376;-75
2022/09/29 10:29:38;;;;;;;8.27;5.97;;;;;;;12.25;77.81;100044.47;5286823;28;20082;-78
2022/09/29 10:32:20;;;;;;;5.38;4.88;;;;;;;12.32;77.49;100055.94;5275047;28;20373;-81
2022/09/29 10:35:00;;;;;;;6.70;5.40;;;;;;;12.50;77.27;100057.66;5287584;28;20089;-79
2022/09/29 10:37:41;;;;;;;5.72;4.97;;;;;;;12.47;77.18;100057.47;5275986;28;20025;-79
2022/09/29 10:40:20;;;;;;;7.07;4.93;;;;;;;12.49;75.88;100055.19;5270600;28;20029;-82
2022/09/29 10:42:52;;;;;;;4.13;3.53;;;;;;;12.60;74.09;100057.38;5273472;28;20021;-82
2022/09/29 10:45:27;;;;;;;4.22;3.20;;;;;;;12.53;72.66;100061.75;5277050;28;20016;-76
2022/09/29 10:47:58;;;;;;;3.30;2.95;;;;;;;12.74;72.92;100056.41;5284423;28;20104;-76
2022/09/29 10:50:33;;;;;;;3.63;3.25;;;;;;;12.60;72.56;100054.59;5284628;28;20104;-75
2022/09/29 10:53:27;;;;;;;3.55;3.17;;;;;;;12.66;72.31;100057.22;5282988;28;20078;-75
2022/09/29 10:56:01;;;;;;;7.35;3.30;;;;;;;12.83;72.92;100060.00;5263995;28;20025;-75
2022/09/29 10:58:38;;;;;;;4.57;3.25;;;;;;;12.90;72.80;100063.16;5262438;28;20107;-77
2022/09/29 11:01:14;;;;;;;5.25;3.60;;;;;;;13.05;72.82;100061.88;5265511;28;20053;-79
2022/09/29 11:04:00;;;;;;;5.72;3.85;;;;;;;13.02;72.72;100063.34;5265896;28;20029;-78
2022/09/29 11:06:36;;;;;;;4.82;3.88;;;;;;;13.03;70.86;100064.16;5265066;28;20051;-77
2022/09/29 11:09:17;;;;;;;3.63;3.10;;;;;;;13.18;71.57;100071.22;5264391;28;20094;-78
2022/09/29 11:11:48;;;;;;;4.20;3.25;;;;;;;13.18;71.34;100068.44;5281176;28;20041;-80
2022/09/29 11:14:34;;;;;;;2.63;2.35;;;;;;;13.22;70.21;100066.66;5289344;28;20029;-86
2022/09/29 11:17:23;;;;;;;3.47;2.67;;;;;;;13.33;69.83;100070.78;5273483;28;20025;-87
2022/09/29 11:20:01;;;;;;;1.92;1.75;;;;;;;13.42;67.43;100066.03;5263119;28;20029;-87
2022/09/29 11:23:06;;;;;;;2.97;2.50;;;;;;;13.41;66.83;100066.34;5265136;28;20035;-87
2022/09/29 11:25:56;;;;;;;7.95;5.55;;;;;;;13.42;67.55;100071.59;5280209;28;20082;-82
2022/09/29 11:28:52;;;;;;;3.67;2.75;;;;;;;13.51;67.96;100070.78;5267231;28;20523;-83
2022/09/29 11:31:30;;;;;;;3.92;3.40;;;;;;;13.36;66.48;100066.50;5266459;28;20143;-82
2022/09/29 11:34:14;;;;;;;4.30;3.05;;;;;;;13.49;67.11;100071.09;5262912;28;20491;-81
2022/09/29 11:36:59;;;;;;;3.67;3.00;;;;;;;13.63;67.44;100068.16;5268282;28;20502;-81
2022/09/29 11:39:36;;;;;;;3.30;1.90;;;;;;;13.78;64.47;100070.44;5279889;28;20037;-78
2022/09/29 11:42:44;;;;;;;2.42;2.22;;;;;;;13.98;66.94;100070.88;5262024;28;20095;-78
2022/09/29 11:45:22;;;;;;;4.47;3.78;;;;;;;14.03;65.75;100073.50;5275155;28;20028;-72
2022/09/29 11:48:26;;;;;;;2.90;2.63;;;;;;;14.18;65.95;100072.94;5282565;28;20376;-73
2022/09/29 11:51:31;;;;;;;3.65;2.70;;;;;;;14.20;65.02;100072.63;5230430;28;20045;-80
2022/09/29 11:54:29;;;;;;;5.63;2.90;;;;;;;14.25;63.93;100078.84;5262587;28;20039;-80
2022/09/29 11:57:13;;;;;;;3.15;2.60;;;;;;;14.43;65.75;100081.56;5264092;28;20476;-78
2022/09/29 12:00:08;;;;;;;3.35;2.17;;;;;;;14.49;64.30;100077.44;5263235;28;20059;-80
2022/09/29 12:03:01;;;;;;;3.40;2.75;;;;;;;14.56;62.40;100080.56;5262147;28;20033;-77
2022/09/29 12:05:45;;;;;;;3.28;2.88;;;;;;;14.71;64.27;100074.41;5264110;28;20472;-75
2022/09/29 12:08:38;;;;;;;2.60;2.28;;;;;;;14.87;65.48;100082.22;5282043;28;20040;-74
2022/09/29 12:11:33;;;;;;;3.75;3.40;;;;;;;14.91;62.73;100080.41;5283371;28;20036;-77
2022/09/29 12:14:14;;;;;;;3.35;3.05;;;;;;;14.87;61.61;100082.22;5269107;28;20033;-74
2022/09/29 12:16:56;;;;;;;4.10;2.80;;;;;;;15.10;63.97;100077.94;5260189;28;20020;-79
2022/09/29 12:19:32;;;;;;;3.20;2.20;;;;;;;15.27;61.20;100079.00;5274358;28;20024;-78
2022/09/29 12:22:08;;;;;;;3.58;2.50;;;;;;;15.20;60.09;100088.72;5272852;28;20040;-78
2022/09/29 12:24:46;;;;;;;4.28;3.70;;;;;;;14.93;60.06;100078.91;5262918;28;20033;-81
2022/09/29 12:27:37;;;;;;;4.65;3.20;;;;;;;15.28;62.26;100083.44;5280737;28;20025;-78
2022/09/29 12:30:18;;;;;;;5.97;3.15;;;;;;;15.10;61.29;100086.34;5279075;28;20040;-78
2022/09/29 12:33:07;;;;;;;5.72;2.65;;;;;;;15.08;62.18;100083.06;5278343;28;20025;-77
2022/09/29 12:35:53;;;;;;;3.40;3.10;;;;;;;15.05;60.57;100080.94;5269835;28;20061;-80
2022/09/29 12:38:35;;;;;;;3.88;2.67;;;;;;;15.19;60.49;100081.53;5263656;28;20437;-82
2022/09/29 12:41:12;;;;;;;3.15;2.50;;;;;;;15.31;59.89;100088.31;5269913;28;20112;-83
2022/09/29 12:43:53;;;;;;;3.75;2.70;;;;;;;15.44;57.87;100081.66;5276112;28;20024;-80
2022/09/29 12:46:36;;;;;;;2.92;2.28;;;;;;;15.47;57.56;100082.94;5266154;28;20033;-79
2022/09/29 12:49:26;;;;;;;2.72;1.92;;;;;;;15.67;57.29;100079.31;5275934;28;20029;-82
2022/09/29 12:52:01;;;;;;;3.50;2.50;;;;;;;15.57;57.10;100080.56;5272933;28;20108;-82
2022/09/29 12:54:43;;;;;;;3.65;1.98;;;;;;;15.70;58.30;100081.47;5273243;28;20063;-81
2022/09/29 12:57:21;;;;;;;1.70;1.60;;;;;;;15.79;55.78;100084.19;5291510;28;20063;-81
2022/09/29 13:00:02;;;;;;;2.45;1.67;;;;;;;15.76;56.03;100079.28;5288197;28;20036;-80
2022/09/29 13:03:14;;;;;;;2.20;1.65;;;;;;;16.00;57.37;100076.59;5284346;28;20025;-81
2022/09/29 13:05:51;;;;;;;2.60;1.83;;;;;;;15.98;54.93;100078.09;5292566;28;20031;-80
2022/09/29 13:09:00;;;;;;;2.63;2.22;;;;;;;16.28;56.22;100081.53;5304261;28;20033;-78
2022/09/29 13:11:37;;;;;;;2.60;2.08;;;;;;;16.38;54.04;100074.66;5278258;28;20030;-78
2022/09/29 13:14:27;;;;;;;2.00;1.75;;;;;;;16.44;53.62;100076.91;5276709;28;20033;-78
2022/09/29 13:17:37;;;;;;;2.13;1.05;;;;;;;16.58;52.77;100084.16;5274912;28;20396;-78
2022/09/29 13:20:42;;;;;;;1.58;1.30;;;;;;;16.50;52.30;100083.91;5272131;28;20056;-78
2022/09/29 13:23:52;;;;;;;3.75;1.80;;;;;;;16.58;53.76;100076.56;5276692;28;20028;-79
2022/09/29 13:26:48;;;;;;;1.15;1.05;;;;;;;16.38;49.95;100075.47;5279454;28;20087;-80
2022/09/29 13:29:22;;;;;;;1.98;1.30;;;;;;;16.53;50.87;100076.78;5265989;28;20032;-81
2022/09/29 13:31:56;;;;;;;3.28;1.20;;;;;;;16.52;49.46;100080.75;5267548;28;20037;-80
2022/09/29 13:34:33;;;;;;;0.85;0.80;;;;;;;16.50;47.47;100080.28;5264814;28;20040;-80
2022/09/29 13:37:16;;;;;;;1.60;1.25;;;;;;;16.46;49.75;100084.94;5263077;28;20021;-75
2022/09/29 13:40:14;;;;;;;2.30;1.48;;;;;;;16.29;48.79;100084.00;5268561;28;20586;-76
2022/09/29 13:42:47;;;;;;;5.10;3.50;;;;;;;16.28;50.63;100087.97;5281949;28;20021;-75
2022/09/29 13:45:18;;;;;;;3.97;2.30;;;;;;;16.30;52.01;100091.22;5264452;28;20068;-75
2022/09/29 13:47:55;;;;;;;3.07;1.70;;;;;;;16.49;52.83;100092.66;5266215;28;20063;-76
2022/09/29 13:50:44;;;;;;;1.55;1.45;;;;;;;16.46;53.36;100093.34;5266972;28;20293;-76
2022/09/29 13:53:19;;;;;;;2.92;1.48;;;;;;;16.29;51.71;100088.78;5253385;28;20029;-76
2022/09/29 13:56:02;;;;;;;3.53;1.70;;;;;;;16.43;53.35;100094.84;5273473;28;20124;-77
2022/09/29 13:58:42;;;;;;;1.60;1.38;;;;;;;16.39;53.05;100098.72;5281731;28;20452;-81
2022/09/29 14:01:30;;;;;;;2.85;1.50;;;;;;;16.18;52.99;100095.97;5272328;28;20056;-83
2022/09/29 14:04:54;;;;;;;8.40;7.60;;;;;;;16.32;51.79;100102.06;5264077;28;20049;-80
2022/09/29 14:07:48;;;;;;;1.98;1.60;;;;;;;16.02;52.32;100102.19;5250382;28;20041;-83
2022/09/29 14:10:36;;;;;;;2.72;1.73;;;;;;;15.90;52.56;100093.78;5269800;28;20103;-83
2022/09/29 14:13:27;;;;;;;2.33;1.67;;;;;;;15.99;53.14;100102.91;5266372;28;20043;-84
2022/09/29 14:16:36;;;;;;;1.90;1.45;;;;;;;16.09;53.64;100105.25;5265352;28;20032;-80
2022/09/29 14:19:34;;;;;;;2.90;1.70;;;;;;;15.88;53.06;100112.88;5278134;28;20496;-78
2022/09/29 14:22:30;;;;;;;3.83;2.20;;;;;;;15.78;55.10;100116.09;5263544;28;20035;-80
2022/09/29 14:25:07;;;;;;;4.72;2.00;;;;;;;15.75;54.09;100116.78;5288127;28;20035;-79
2022/09/29 14:27:46;;;;;;;3.75;1.60;;;;;;;15.65;54.21;100115.19;5272519;28;20029;-79
2022/09/29 14:30:34;;;;;;;1.48;1.38;;;;;;;15.65;54.72;100126.38;5275984;28;20388;-78
2022/09/29 14:33:28;;;;;;;2.00;1.58;;;;;;;15.62;54.36;100127.88;5280989;28;20537;-75
2022/09/29 14:36:02;;;;;;;1.90;1.70;;;;;;;15.49;54.51;100134.53;5280781;28;20067;-77
2022/09/29 14:38:39;;;;;;;2.00;1.48;;;;;;;15.61;55.57;100134.59;5283280;28;20379;-77
2022/09/29 14:41:31;;;;;;;2.78;1.80;;;;;;;15.59;55.34;100134.13;5266301;28;20067;-77
2022/09/29 14:44:10;;;;;;;8.65;4.55;;;;;;;15.52;54.78;100133.88;5273446;28;20392;-75
2022/09/29 14:52:41;;;;;;;2.03;1.83;;;;;;;15.47;54.94;100136.88;5274444;28;20115;-79
2022/09/29 14:55:33;;;;;;;2.88;2.35;;;;;;;15.46;55.59;100135.22;5277363;28;20043;-77
2022/09/29 14:58:16;;;;;;;8.55;6.82;;;;;;;15.46;56.34;100143.59;5273740;28;20139;-85
2022/09/29 15:01:12;;;;;;;2.53;1.90;;;;;;;15.30;55.33;100143.38;5281915;28;20053;-83
2022/09/29 15:03:47;;;;;;;2.65;1.80;;;;;;;15.40;57.99;100142.19;5284259;28;20039;-84
2022/09/29 15:06:30;;;;;;;4.00;2.27;;;;;;;15.23;56.13;100149.50;5285740;28;20024;-86
2022/09/29 15:09:14;;;;;;;3.67;2.15;;;;;;;15.26;56.52;100152.78;5265630;28;20033;-83
2022/09/29 15:11:55;;;;;;;2.58;2.22;;;;;;;15.31;56.92;100150.59;5261505;28;20278;-85
2022/09/29 15:14:29;;;;;;;3.28;2.00;;;;;;;15.19;56.77;100154.13;5262521;28;20029;-82
2022/09/29 15:17:38;;;;;;;5.72;2.92;;;;;;;15.29;57.78;100160.47;5261674;28;20492;-81
2022/09/29 15:20:21;;;;;;;1.77;1.67;;;;;;;15.25;59.69;100163.13;5261830;28;20039;-82
2022/09/29 15:23:31;;;;;;;3.35;2.35;;;;;;;15.31;60.21;100163.75;5270507;28;20043;-80
2022/09/29 15:26:05;;;;;;;3.17;2.30;;;;;;;15.20;59.68;100158.56;5277450;28;20081;-80
2022/09/29 15:28:38;;;;;;;5.85;5.25;;;;;;;15.04;57.63;100163.09;5269129;28;20078;-77
2022/09/29 15:31:17;;;;;;;5.93;5.32;;;;;;;15.11;58.80;100163.38;5261257;28;20078;-77
2022/09/29 15:33:48;;;;;;;3.17;1.88;;;;;;;15.26;60.86;100169.53;5267256;28;20021;-87
2022/09/29 15:36:24;;;;;;;4.25;2.67;;;;;;;15.11;59.37;100174.56;5271706;28;20804;-85
2022/09/29 15:39:40;;;;;;;3.22;2.30;;;;;;;15.02;59.86;100165.41;5288517;28;20036;-77
2022/09/29 15:42:21;;;;;;;4.00;2.95;;;;;;;15.01;60.50;100166.56;5284758;28;20032;-84
2022/09/29 15:44:59;;;;;;;6.28;2.60;;;;;;;14.89;61.01;100174.81;5272072;28;20021;-84
2022/09/29 15:47:36;;;;;;;3.75;2.20;;;;;;;14.92;61.32;100168.56;5264043;28;20021;-85
2022/09/29 15:50:19;;;;;;;2.97;2.67;;;;;;;15.13;62.76;100177.81;5266789;28;20089;-86
2022/09/29 15:52:51;;;;;;;2.65;2.22;;;;;;;14.98;60.63;100175.59;5265878;28;20021;-84
2022/09/29 15:55:24;;;;;;;4.13;2.85;;;;;;;15.23;62.95;100177.44;5266002;28;20487;-84
2022/09/29 15:58:18;;;;;;;9.05;4.63;;;;;;;15.04;59.84;100185.44;5264214;28;20028;-80
2022/09/29 16:00:50;;;;;;;6.10;2.90;;;;;;;15.00;59.33;100190.84;5272414;28;20057;-79
2022/09/29 16:03:41;;;;;;;2.67;2.33;;;;;;;15.02;58.47;100193.31;5280143;28;20028;-72
2022/09/29 16:06:26;;;;;;;3.38;2.50;;;;;;;14.96;60.28;100195.47;5279135;28;20131;-74
2022/09/29 16:09:04;;;;;;;5.47;2.75;;;;;;;14.92;60.32;100196.47;5279404;28;20396;-76
2022/09/29 16:11:40;;;;;;;5.20;3.30;;;;;;;14.84;61.78;100206.53;5280514;28;20024;-79
2022/09/29 16:14:25;;;;;;;5.47;3.25;;;;;;;14.83;62.47;100206.84;5262167;28;20427;-79
2022/09/29 16:16:58;;;;;;;4.20;3.80;;;;;;;14.78;62.62;100211.47;5268816;28;20526;-79
2022/09/29 16:19:31;;;;;;;4.90;3.58;;;;;;;14.75;63.53;100212.16;5284049;28;20036;-79
2022/09/29 16:22:17;;;;;;;5.47;3.90;;;;;;;14.73;63.38;100214.44;5282746;28;20070;-80
2022/09/29 16:25:07;;;;;;;4.28;3.65;;;;;;;14.75;63.84;100220.53;5275880;28;20079;-80
2022/09/29 16:27:56;;;;;;;7.13;4.65;;;;;;;14.68;63.98;100223.00;5272136;28;20025;-80
2022/09/29 16:30:39;;;;;;;4.68;4.13;;;;;;;14.64;64.10;100232.38;5293194;28;20016;-81
2022/09/29 16:33:20;;;;;;;4.65;3.78;;;;;;;14.51;65.02;100243.34;5295675;28;20032;-81
2022/09/29 16:36:12;;;;;;;4.05;3.58;;;;;;;14.61;64.67;100239.44;5269008;28;20032;-74
2022/09/29 16:38:50;;;;;;;3.85;3.55;;;;;;;14.50;65.25;100240.91;5268768;28;20158;-76
2022/09/29 16:41:39;;;;;;;4.45;3.60;;;;;;;14.43;65.53;100243.38;5266059;28;20098;-76
2022/09/29 16:44:16;;;;;;;5.95;4.18;;;;;;;14.35;66.18;100248.63;5282636;28;20504;-77
2022/09/29 16:46:56;;;;;;;4.30;3.47;;;;;;;14.33;66.09;100253.72;5278735;28;20021;-77
2022/09/29 16:49:34;;;;;;;5.18;4.13;;;;;;;14.25;66.95;100259.31;5265566;28;20041;-76
2022/09/29 16:52:27;;;;;;;6.80;4.00;;;;;;;14.32;66.63;100260.44;5257615;28;20462;-77
2022/09/29 16:55:26;;;;;;;6.70;3.75;;;;;;;14.25;67.31;100260.13;5286270;28;20040;-76
2022/09/29 16:58:07;;;;;;;6.97;4.82;;;;;;;14.15;68.05;100260.44;5276819;28;20053;-76
2022/09/29 17:00:38;;;;;;;4.70;4.18;;;;;;;14.08;67.80;100262.91;5271504;28;20119;-77
2022/09/29 17:03:11;;;;;;;5.85;4.15;;;;;;;14.05;68.12;100267.16;5285103;28;20039;-77
2022/09/29 17:05:47;;;;;;;5.50;3.95;;;;;;;14.04;67.75;100270.28;5280711;28;20481;-76
2022/09/29 17:08:27;;;;;;;6.72;4.03;;;;;;;14.02;69.48;100272.59;5260537;28;20025;-78
2022/09/29 17:10:59;;;;;;;5.20;4.40;;;;;;;13.92;69.63;100276.50;5274627;28;20032;-75
2022/09/29 17:13:35;;;;;;;6.43;4.35;;;;;;;13.87;70.10;100274.69;5283685;28;20028;-73
2022/09/29 17:16:07;;;;;;;8.80;6.30;;;;;;;13.76;70.52;100281.72;5282728;28;20100;-74
2022/09/29 17:18:39;;;;;;;5.53;4.47;;;;;;;13.78;70.79;100276.66;5268065;28;20380;-76
2022/09/29 17:21:10;;;;;;;5.95;4.80;;;;;;;13.73;71.06;100275.97;5263747;28;20029;-77
2022/09/29 17:23:42;;;;;;;6.35;5.10;;;;;;;13.70;71.67;100271.88;5266732;28;20021;-77
2022/09/29 17:29:23;;;;;;;5.50;4.95;;;;;;;13.58;72.50;100282.84;5263717;28;20024;-76
2022/09/29 17:31:55;;;;;;;51.00;46.35;;;;;;;13.60;73.40;100286.94;5262749;28;20827;-77
